createdAt,value
2023-06-11T00:00:20.104Z,24.72
2023-06-11T00:02:47.175Z,24.70
2023-06-11T00:05:16.786Z,24.68
2023-06-11T00:07:44.723Z,24.69
2023-06-11T00:10:11.996Z,24.62
2023-06-11T00:12:49.916Z,24.62
2023-06-11T00:15:17.037Z,24.58
2023-06-11T00:17:44.559Z,24.61
2023-06-11T00:20:12.818Z,24.63
2023-06-11T00:22:41.032Z,24.68
2023-06-11T00:25:11.804Z,24.68
2023-06-11T00:27:40.201Z,24.66
2023-06-11T00:30:10.868Z,24.68
2023-06-11T00:32:38.445Z,24.71
2023-06-11T00:35:08.891Z,24.68
2023-06-11T00:37:37.305Z,24.69
2023-06-11T00:40:04.608Z,24.67
2023-06-11T00:42:34.879Z,24.69
2023-06-11T00:45:04.969Z,24.61
2023-06-11T00:47:33.157Z,24.57
2023-06-11T00:50:03.500Z,24.53
2023-06-11T00:52:30.618Z,24.51
2023-06-11T00:54:59.614Z,24.56
2023-06-11T00:57:29.990Z,24.57
2023-06-11T00:59:57.208Z,24.59
2023-06-11T01:02:30.053Z,24.59
2023-06-11T01:04:59.922Z,24.58
2023-06-11T01:07:31.754Z,24.61
2023-06-11T01:10:02.218Z,24.60
2023-06-11T01:12:31.014Z,24.58
2023-06-11T01:14:58.565Z,24.62
2023-06-11T01:17:55.888Z,24.61
2023-06-11T01:20:36.297Z,24.58
2023-06-11T01:23:23.157Z,24.53
2023-06-11T01:26:02.958Z,24.54
2023-06-11T01:28:32.299Z,24.57
2023-06-11T01:31:04.328Z,24.56
2023-06-11T01:33:36.907Z,24.52
2023-06-11T01:36:07.141Z,24.44
2023-06-11T01:38:42.775Z,24.40
2023-06-11T01:41:16.112Z,24.35
2023-06-11T01:43:44.404Z,24.36
2023-06-11T01:46:11.432Z,24.28
2023-06-11T01:48:38.472Z,24.35
2023-06-11T01:51:05.935Z,24.31
2023-06-11T01:53:33.416Z,24.29
2023-06-11T01:56:02.236Z,24.28
2023-06-11T01:58:32.284Z,24.27
2023-06-11T02:00:59.695Z,24.30
2023-06-11T02:03:27.269Z,24.22
2023-06-11T02:05:54.550Z,24.20
2023-06-11T02:08:22.248Z,24.22
2023-06-11T02:10:49.199Z,24.21
2023-06-11T02:13:16.366Z,24.21
2023-06-11T02:15:43.335Z,24.15
2023-06-11T02:18:10.488Z,24.15
2023-06-11T02:20:37.876Z,24.14
2023-06-11T02:23:05.112Z,24.09
2023-06-11T02:25:32.185Z,24.05
2023-06-11T02:27:59.604Z,24.04
2023-06-11T02:30:28.633Z,24.04
2023-06-11T02:32:56.099Z,23.94
2023-06-11T02:35:23.331Z,23.92
2023-06-11T02:37:50.591Z,23.94
2023-06-11T02:40:17.649Z,23.92
2023-06-11T02:42:44.688Z,23.86
2023-06-11T02:45:12.006Z,23.87
2023-06-11T02:47:39.245Z,23.86
2023-06-11T02:50:06.968Z,23.90
2023-06-11T02:52:34.024Z,23.84
2023-06-11T02:55:01.076Z,23.84
2023-06-11T02:57:28.030Z,23.82
2023-06-11T02:59:55.022Z,23.79
2023-06-11T03:02:22.165Z,23.77
2023-06-11T03:04:49.255Z,23.74
2023-06-11T03:07:16.838Z,23.72
2023-06-11T03:09:43.873Z,23.72
2023-06-11T03:12:11.007Z,23.67
2023-06-11T03:14:39.367Z,23.59
2023-06-11T03:17:06.339Z,23.60
2023-06-11T03:19:33.302Z,23.63
2023-06-11T03:22:01.124Z,23.61
2023-06-11T03:24:28.470Z,23.64
2023-06-11T03:27:03.831Z,23.63
2023-06-11T03:29:30.939Z,23.60
2023-06-11T03:31:58.994Z,23.57
2023-06-11T03:34:26.541Z,23.55
2023-06-11T03:36:56.712Z,23.56
2023-06-11T03:39:23.804Z,23.52
2023-06-11T03:41:53.857Z,23.49
2023-06-11T03:44:22.459Z,23.50
2023-06-11T03:46:49.657Z,23.46
2023-06-11T03:49:16.657Z,23.44
2023-06-11T03:51:44.189Z,23.46
2023-06-11T03:54:11.181Z,23.44
2023-06-11T03:56:38.172Z,23.49
2023-06-11T03:59:05.573Z,23.46
2023-06-11T04:01:32.470Z,23.42
2023-06-11T04:04:00.189Z,23.44
2023-06-11T04:06:29.166Z,23.48
2023-06-11T04:08:58.229Z,23.41
2023-06-11T04:11:26.065Z,23.45
2023-06-11T04:13:53.177Z,23.43
2023-06-11T04:16:20.647Z,23.40
2023-06-11T04:18:49.162Z,23.41
2023-06-11T04:21:16.440Z,23.38
2023-06-11T04:23:43.563Z,23.39
2023-06-11T04:26:11.541Z,23.41
2023-06-11T04:28:45.366Z,23.45
2023-06-11T04:31:15.844Z,23.44
2023-06-11T04:33:47.321Z,23.44
2023-06-11T04:36:14.856Z,23.45
2023-06-11T04:38:46.239Z,23.44
2023-06-11T04:41:15.663Z,23.44
2023-06-11T04:43:47.385Z,23.46
2023-06-11T04:46:15.683Z,23.41
2023-06-11T04:48:42.688Z,23.38
2023-06-11T04:51:13.354Z,23.40
2023-06-11T04:53:44.508Z,23.39
2023-06-11T04:56:13.402Z,23.41
2023-06-11T04:58:41.339Z,23.46
2023-06-11T05:01:10.053Z,23.41
2023-06-11T05:03:38.639Z,23.49
2023-06-11T05:06:09.873Z,23.46
2023-06-11T05:08:40.808Z,23.45
2023-06-11T05:11:08.042Z,23.47
2023-06-11T05:13:35.682Z,23.51
2023-06-11T05:16:07.180Z,23.54
2023-06-11T05:18:36.990Z,23.55
2023-06-11T05:21:07.938Z,23.58
2023-06-11T05:23:36.013Z,23.60
2023-06-11T05:26:13.483Z,23.59
2023-06-11T05:28:44.835Z,23.62
2023-06-11T05:31:14.337Z,23.65
2023-06-11T05:33:45.600Z,23.70
2023-06-11T05:36:13.702Z,23.73
2023-06-11T05:38:42.220Z,23.77
2023-06-11T05:41:10.363Z,23.76
2023-06-11T05:43:38.080Z,23.79
2023-06-11T05:46:05.325Z,23.82
2023-06-11T05:48:39.661Z,23.82
2023-06-11T05:51:11.768Z,23.86
2023-06-11T05:53:43.772Z,23.85
2023-06-11T05:56:11.114Z,23.88
2023-06-11T05:58:40.147Z,23.95
2023-06-11T06:01:07.614Z,23.94
2023-06-11T06:03:39.103Z,23.92
2023-06-11T06:06:06.526Z,23.94
2023-06-11T06:08:33.626Z,23.99
2023-06-11T06:11:04.136Z,24.04
2023-06-11T06:13:31.536Z,24.08
2023-06-11T06:16:02.736Z,24.09
2023-06-11T06:18:31.241Z,24.17
2023-06-11T06:21:06.889Z,24.14
2023-06-11T06:23:34.079Z,24.15
2023-06-11T06:26:14.186Z,24.13
2023-06-11T06:28:41.283Z,24.20
2023-06-11T06:31:09.379Z,24.26
2023-06-11T06:33:39.284Z,24.39
2023-06-11T06:36:08.388Z,24.47
2023-06-11T06:38:42.803Z,24.56
2023-06-11T06:41:11.122Z,24.71
2023-06-11T06:43:38.573Z,24.83
2023-06-11T06:46:12.521Z,24.87
2023-06-11T06:48:42.734Z,24.94
2023-06-11T06:51:10.171Z,25.07
2023-06-11T06:53:41.274Z,25.19
2023-06-11T06:56:14.743Z,25.34
2023-06-11T06:58:42.667Z,25.44
2023-06-11T07:01:09.978Z,25.53
2023-06-11T07:03:37.303Z,25.65
2023-06-11T07:06:04.849Z,25.77
2023-06-11T07:08:33.026Z,25.93
2023-06-11T07:11:00.653Z,26.07
2023-06-11T07:13:41.704Z,26.21
2023-06-11T07:16:10.555Z,26.35
2023-06-11T07:18:40.598Z,26.47
2023-06-11T07:21:08.165Z,26.61
2023-06-11T07:23:35.223Z,26.72
2023-06-11T07:26:03.565Z,26.85
2023-06-11T07:28:30.683Z,27.02
2023-06-11T07:30:59.174Z,27.26
2023-06-11T07:33:26.769Z,27.53
2023-06-11T07:35:55.902Z,27.82
2023-06-11T07:38:24.128Z,28.10
2023-06-11T07:40:51.145Z,28.36
2023-06-11T07:43:18.172Z,28.38
2023-06-11T07:45:45.791Z,28.38
2023-06-11T07:48:13.899Z,28.33
2023-06-11T07:50:40.883Z,28.32
2023-06-11T07:53:10.174Z,28.33
2023-06-11T07:55:37.752Z,28.48
2023-06-11T07:58:04.696Z,28.61
2023-06-11T08:00:31.724Z,28.72
2023-06-11T08:02:58.763Z,28.90
2023-06-11T08:05:25.869Z,29.28
2023-06-11T08:07:52.860Z,29.58
2023-06-11T08:10:19.869Z,29.63
2023-06-11T08:12:46.833Z,29.49
2023-06-11T08:15:13.922Z,29.32
2023-06-11T08:17:44.185Z,29.18
2023-06-11T08:20:11.862Z,29.02
2023-06-11T08:22:40.872Z,28.89
2023-06-11T08:25:09.488Z,28.76
2023-06-11T08:27:37.003Z,28.70
2023-06-11T08:30:04.900Z,28.67
2023-06-11T08:32:32.068Z,28.63
2023-06-11T08:34:59.329Z,28.65
2023-06-11T08:37:27.194Z,28.61
2023-06-11T08:39:54.247Z,28.57
2023-06-11T08:42:21.399Z,28.52
2023-06-11T08:44:49.606Z,28.53
2023-06-11T08:47:18.082Z,28.50
2023-06-11T08:49:46.626Z,28.49
2023-06-11T08:52:15.100Z,28.40
2023-06-11T08:54:42.452Z,28.40
2023-06-11T08:57:09.993Z,28.33
2023-06-11T08:59:37.160Z,28.29
2023-06-11T09:02:04.693Z,28.26
2023-06-11T09:04:31.870Z,28.22
2023-06-11T09:07:01.097Z,28.23
2023-06-11T09:09:28.620Z,28.16
2023-06-11T09:11:55.766Z,28.15
2023-06-11T09:14:23.008Z,28.08
2023-06-11T09:16:50.255Z,27.96
2023-06-11T09:19:22.063Z,27.89
2023-06-11T09:21:57.552Z,27.88
2023-06-11T09:24:26.300Z,27.83
2023-06-11T09:26:59.927Z,27.87
2023-06-11T09:29:28.840Z,27.86
2023-06-11T09:32:19.531Z,27.81
2023-06-11T09:34:57.135Z,27.72
2023-06-11T09:37:24.645Z,27.67
2023-06-11T09:39:51.880Z,27.62
2023-06-11T09:42:28.527Z,27.61
2023-06-11T09:45:00.588Z,27.58
2023-06-11T09:47:32.362Z,27.56
2023-06-11T09:50:00.428Z,27.55
2023-06-11T09:52:30.878Z,27.59
2023-06-11T09:54:58.884Z,27.61
2023-06-11T09:57:26.414Z,27.62
2023-06-11T09:59:53.449Z,27.66
2023-06-11T10:02:20.448Z,27.66
2023-06-11T10:04:47.543Z,27.62
2023-06-11T10:07:15.793Z,27.66
2023-06-11T10:09:44.843Z,27.66
2023-06-11T10:12:13.455Z,27.66
2023-06-11T10:14:43.048Z,27.66
2023-06-11T10:17:10.117Z,27.66
2023-06-11T10:19:37.948Z,27.65
2023-06-11T10:22:05.145Z,27.67
2023-06-11T10:24:32.445Z,27.68
2023-06-11T10:27:13.963Z,27.72
2023-06-11T10:29:43.044Z,27.73
2023-06-11T10:32:24.107Z,27.74
2023-06-11T10:34:57.229Z,27.75
2023-06-11T10:37:30.500Z,27.75
2023-06-11T10:39:57.730Z,27.75
2023-06-11T10:42:27.126Z,27.79
2023-06-11T10:45:00.752Z,27.81
2023-06-11T10:47:47.103Z,27.83
2023-06-11T10:50:25.172Z,27.82
2023-06-11T10:53:00.197Z,27.83
2023-06-11T10:55:30.958Z,27.83
2023-06-11T10:57:59.920Z,27.83
2023-06-11T11:00:35.470Z,27.85
2023-06-11T11:03:05.236Z,27.83
2023-06-11T11:05:33.203Z,27.82
2023-06-11T11:08:03.271Z,27.84
2023-06-11T11:10:31.124Z,27.88
2023-06-11T11:12:58.258Z,27.91
2023-06-11T11:15:25.357Z,27.94
2023-06-11T11:17:52.664Z,27.97
2023-06-11T11:20:21.169Z,27.98
2023-06-11T11:22:55.910Z,28.01
2023-06-11T11:25:26.659Z,28.00
2023-06-11T11:27:53.785Z,28.02
2023-06-11T11:30:21.110Z,28.03
2023-06-11T11:32:48.613Z,28.03
2023-06-11T11:35:18.579Z,28.07
2023-06-11T11:37:52.447Z,28.10
2023-06-11T11:40:21.026Z,28.12
2023-06-11T11:42:56.913Z,28.10
2023-06-11T11:45:34.476Z,28.11
2023-06-11T11:48:05.419Z,28.11
2023-06-11T11:50:33.172Z,28.12
2023-06-11T11:53:06.097Z,28.09
2023-06-11T11:55:34.941Z,28.05
2023-06-11T11:58:11.663Z,28.03
2023-06-11T12:00:49.569Z,28.04
2023-06-11T12:03:19.999Z,27.96
2023-06-11T12:06:06.154Z,27.89
2023-06-11T12:08:34.511Z,27.85
2023-06-11T12:11:03.330Z,27.84
2023-06-11T12:13:30.675Z,27.84
2023-06-11T12:15:59.139Z,27.87
2023-06-11T12:18:27.268Z,27.87
2023-06-11T12:20:54.512Z,27.87
2023-06-11T12:23:22.769Z,27.90
2023-06-11T12:25:49.751Z,27.90
2023-06-11T12:28:17.199Z,27.87
2023-06-11T12:30:44.420Z,27.83
2023-06-11T12:33:16.546Z,27.85
2023-06-11T12:35:44.582Z,27.86
2023-06-11T12:38:12.077Z,27.87
2023-06-11T12:40:39.165Z,27.86
2023-06-11T12:43:08.738Z,27.84
2023-06-11T12:45:38.784Z,27.88
2023-06-11T12:48:07.141Z,27.92
2023-06-11T12:50:34.239Z,27.98
2023-06-11T12:53:01.858Z,27.99
2023-06-11T12:55:28.898Z,28.03
2023-06-11T12:57:56.152Z,28.06
2023-06-11T13:00:24.501Z,28.08
2023-06-11T13:02:51.688Z,28.08
2023-06-11T13:05:19.354Z,28.09
2023-06-11T13:07:46.637Z,28.09
2023-06-11T13:10:13.941Z,28.07
2023-06-11T13:12:41.524Z,28.05
2023-06-11T13:15:09.346Z,28.00
2023-06-11T13:17:36.404Z,28.00
2023-06-11T13:20:03.856Z,28.05
2023-06-11T13:22:31.003Z,27.96
2023-06-11T13:24:58.076Z,27.99
2023-06-11T13:27:25.019Z,27.98
2023-06-11T13:29:52.027Z,27.99
2023-06-11T13:32:20.058Z,28.02
2023-06-11T13:34:47.301Z,27.97
2023-06-11T13:37:14.453Z,28.00
2023-06-11T13:39:41.762Z,28.04
2023-06-11T13:42:08.930Z,27.98
2023-06-11T13:44:36.080Z,28.01
2023-06-11T13:47:05.785Z,28.02
2023-06-11T13:49:34.138Z,27.98
2023-06-11T13:52:02.064Z,27.96
2023-06-11T13:54:44.527Z,28.01
2023-06-11T13:57:11.816Z,27.97
2023-06-11T13:59:38.811Z,27.99
2023-06-11T14:02:06.164Z,28.06
2023-06-11T14:04:33.258Z,28.05
2023-06-11T14:07:02.195Z,28.03
2023-06-11T14:09:29.172Z,28.02
2023-06-11T14:11:56.184Z,28.03
2023-06-11T14:14:24.511Z,28.07
2023-06-11T14:16:52.098Z,28.05
2023-06-11T14:19:19.058Z,28.08
2023-06-11T14:21:46.385Z,28.07
2023-06-11T14:24:14.552Z,27.96
2023-06-11T14:26:41.713Z,27.91
2023-06-11T14:29:08.715Z,27.92
2023-06-11T14:31:36.165Z,27.85
2023-06-11T14:34:03.695Z,27.84
2023-06-11T14:36:31.175Z,27.84
2023-06-11T14:38:59.100Z,27.85
2023-06-11T14:41:26.445Z,27.83
2023-06-11T14:43:53.345Z,27.83
2023-06-11T14:46:20.514Z,27.82
2023-06-11T14:48:47.601Z,27.81
2023-06-11T14:51:14.672Z,27.80
2023-06-11T14:53:41.874Z,27.82
2023-06-11T14:56:08.877Z,27.79
2023-06-11T14:58:35.964Z,27.87
2023-06-11T15:01:05.459Z,27.88
2023-06-11T15:03:33.099Z,27.88
2023-06-11T15:06:01.205Z,27.90
2023-06-11T15:08:28.677Z,27.92
2023-06-11T15:10:55.665Z,27.92
2023-06-11T15:13:24.408Z,27.95
2023-06-11T15:15:52.240Z,28.00
2023-06-11T15:18:19.293Z,27.96
2023-06-11T15:20:46.357Z,27.98
2023-06-11T15:23:13.494Z,27.95
2023-06-11T15:25:43.647Z,27.98
2023-06-11T15:28:11.008Z,27.94
2023-06-11T15:30:46.141Z,27.97
2023-06-11T15:33:13.750Z,27.93
2023-06-11T15:35:42.062Z,27.93
2023-06-11T15:38:09.098Z,27.96
2023-06-11T15:40:36.823Z,27.91
2023-06-11T15:43:03.919Z,27.89
2023-06-11T15:45:34.004Z,27.92
2023-06-11T15:48:01.206Z,27.88
2023-06-11T15:50:30.080Z,27.89
2023-06-11T15:52:57.109Z,27.90
2023-06-11T15:55:24.260Z,27.87
2023-06-11T15:57:51.702Z,27.88
2023-06-11T16:00:19.195Z,27.87
2023-06-11T16:02:46.585Z,27.81
2023-06-11T16:05:14.405Z,27.83
2023-06-11T16:07:44.669Z,27.89
2023-06-11T16:10:14.419Z,27.89
2023-06-11T16:12:44.254Z,27.89
2023-06-11T16:15:12.061Z,27.94
2023-06-11T16:17:39.500Z,27.97
2023-06-11T16:20:07.036Z,27.98
2023-06-11T16:22:34.112Z,27.98
2023-06-11T16:25:01.148Z,27.98
2023-06-11T16:27:28.235Z,27.95
2023-06-11T16:29:55.452Z,27.93
2023-06-11T16:32:22.723Z,27.96
2023-06-11T16:34:52.590Z,27.96
2023-06-11T16:37:19.832Z,27.96
2023-06-11T16:39:46.791Z,27.97
2023-06-11T16:42:13.966Z,28.00
2023-06-11T16:44:41.296Z,27.96
2023-06-11T16:47:08.548Z,27.98
2023-06-11T16:49:35.851Z,27.97
2023-06-11T16:52:04.843Z,27.97
2023-06-11T16:54:32.235Z,27.99
2023-06-11T16:56:59.467Z,27.99
2023-06-11T16:59:31.822Z,28.01
2023-06-11T17:01:59.032Z,28.02
2023-06-11T17:04:28.788Z,28.01
2023-06-11T17:06:55.870Z,28.03
2023-06-11T17:09:22.905Z,28.06
2023-06-11T17:11:49.976Z,28.05
2023-06-11T17:14:17.120Z,28.08
2023-06-11T17:16:44.083Z,28.10
2023-06-11T17:19:11.065Z,28.11
2023-06-11T17:21:39.467Z,28.14
2023-06-11T17:24:06.850Z,28.15
2023-06-11T17:26:34.571Z,28.16
2023-06-11T17:29:03.498Z,28.16
2023-06-11T17:31:30.535Z,28.19
2023-06-11T17:33:57.573Z,28.19
2023-06-11T17:36:24.561Z,28.20
2023-06-11T17:38:51.563Z,28.19
2023-06-11T17:41:18.532Z,28.21
2023-06-11T17:43:48.431Z,28.16
2023-06-11T17:46:16.892Z,28.16
2023-06-11T17:48:44.202Z,28.16
2023-06-11T17:51:11.833Z,28.16
2023-06-11T17:53:39.231Z,28.17
2023-06-11T17:56:06.491Z,28.21
2023-06-11T17:58:34.347Z,28.24
2023-06-11T18:01:01.364Z,28.24
2023-06-11T18:03:28.386Z,28.26
2023-06-11T18:05:55.431Z,28.26
2023-06-11T18:08:24.830Z,28.27
2023-06-11T18:10:52.386Z,28.26
2023-06-11T18:13:19.602Z,28.24
2023-06-11T18:15:47.034Z,28.23
2023-06-11T18:18:16.296Z,28.24
2023-06-11T18:20:43.552Z,28.25
2023-06-11T18:23:10.887Z,28.24
2023-06-11T18:25:38.047Z,28.22
2023-06-11T18:28:05.365Z,28.24
2023-06-11T18:30:36.101Z,28.25
2023-06-11T18:33:03.308Z,28.26
2023-06-11T18:35:33.535Z,28.28
2023-06-11T18:38:01.136Z,28.28
2023-06-11T18:40:28.174Z,28.30
2023-06-11T18:42:55.393Z,28.29
2023-06-11T18:45:22.469Z,28.29
2023-06-11T18:47:52.557Z,28.30
2023-06-11T18:50:19.636Z,28.30
2023-06-11T18:52:49.520Z,28.29
2023-06-11T18:55:20.541Z,28.25
2023-06-11T18:57:48.126Z,28.28
2023-06-11T19:00:18.446Z,28.27
2023-06-11T19:02:45.788Z,28.30
2023-06-11T19:05:12.933Z,28.29
2023-06-11T19:07:40.991Z,28.28
2023-06-11T19:10:14.300Z,28.30
2023-06-11T19:12:42.406Z,28.27
2023-06-11T19:15:09.929Z,28.25
2023-06-11T19:17:40.612Z,28.23
2023-06-11T19:20:09.213Z,28.23
2023-06-11T19:22:37.051Z,28.20
2023-06-11T19:25:05.087Z,28.17
2023-06-11T19:27:32.496Z,28.14
2023-06-11T19:30:03.981Z,28.10
2023-06-11T19:32:31.283Z,28.03
2023-06-11T19:34:58.255Z,28.01
2023-06-11T19:37:25.261Z,27.98
2023-06-11T19:39:53.133Z,27.94
2023-06-11T19:42:20.251Z,27.93
2023-06-11T19:44:47.311Z,27.88
2023-06-11T19:47:14.386Z,27.86
2023-06-11T19:49:41.791Z,27.82
2023-06-11T19:52:08.868Z,27.81
2023-06-11T19:54:50.424Z,27.77
2023-06-11T19:57:21.976Z,27.76
2023-06-11T19:59:50.106Z,27.76
2023-06-11T20:02:19.761Z,27.74
2023-06-11T20:04:47.691Z,27.73
2023-06-11T20:07:17.165Z,27.73
2023-06-11T20:09:46.565Z,27.70
2023-06-11T20:12:17.343Z,27.70
2023-06-11T20:14:44.840Z,27.70
2023-06-11T20:17:12.042Z,27.70
2023-06-11T20:19:40.094Z,27.71
2023-06-11T20:22:07.365Z,27.69
2023-06-11T20:24:34.797Z,27.69
2023-06-11T20:27:01.871Z,27.66
2023-06-11T20:29:29.014Z,27.66
2023-06-11T20:31:56.584Z,27.68
2023-06-11T20:34:23.726Z,27.71
2023-06-11T20:36:50.791Z,27.68
2023-06-11T20:39:18.339Z,27.69
2023-06-11T20:41:45.391Z,27.72
2023-06-11T20:44:12.439Z,27.69
2023-06-11T20:46:39.613Z,27.64
2023-06-11T20:49:07.409Z,27.61
2023-06-11T20:51:35.433Z,27.58
2023-06-11T20:54:02.477Z,27.56
2023-06-11T20:56:30.105Z,27.57
2023-06-11T20:58:57.163Z,27.55
2023-06-11T21:01:24.242Z,27.53
2023-06-11T21:03:55.029Z,27.54
2023-06-11T21:06:22.296Z,27.55
2023-06-11T21:08:49.847Z,27.55
2023-06-11T21:11:17.636Z,27.54
2023-06-11T21:13:45.247Z,27.56
2023-06-11T21:16:14.045Z,27.46
2023-06-11T21:18:54.010Z,27.39
2023-06-11T21:21:21.015Z,27.39
2023-06-11T21:23:48.630Z,27.40
2023-06-11T21:26:27.396Z,27.41
2023-06-11T21:28:54.741Z,27.42
2023-06-11T21:31:22.927Z,27.44
2023-06-11T21:33:52.812Z,27.45
2023-06-11T21:36:25.913Z,27.47
2023-06-11T21:38:56.463Z,27.48
2023-06-11T21:41:23.550Z,27.47
2023-06-11T21:43:50.449Z,27.47
2023-06-11T21:46:18.152Z,27.51
2023-06-11T21:48:49.343Z,27.50
2023-06-11T21:51:17.732Z,27.53
2023-06-11T21:57:30.574Z,27.45
2023-06-11T21:59:58.260Z,27.47
2023-06-11T22:02:25.226Z,27.47
2023-06-11T22:04:53.997Z,27.47
2023-06-11T22:07:22.548Z,27.43
2023-06-11T22:10:07.975Z,27.45
2023-06-11T22:12:41.953Z,27.44
2023-06-11T22:15:19.922Z,27.44
2023-06-11T22:18:05.758Z,27.37
2023-06-11T22:20:36.914Z,27.34
2023-06-11T22:23:45.768Z,27.37
2023-06-11T22:26:18.455Z,27.36
2023-06-11T22:28:48.981Z,27.34
2023-06-11T22:31:19.806Z,27.38
2023-06-11T22:33:49.932Z,27.36
2023-06-11T22:36:17.322Z,27.34
2023-06-11T22:38:45.301Z,27.36
2023-06-11T22:41:15.792Z,27.37
2023-06-11T22:43:56.752Z,27.38
2023-06-11T22:46:26.923Z,27.36
2023-06-11T22:48:54.296Z,27.32
2023-06-11T22:51:22.650Z,27.33
2023-06-11T22:53:49.976Z,27.33
2023-06-11T22:56:26.914Z,27.32
2023-06-11T22:58:54.369Z,27.30
2023-06-11T23:01:22.063Z,27.28
2023-06-11T23:03:52.714Z,27.25
2023-06-11T23:06:19.942Z,27.25
2023-06-11T23:08:49.984Z,27.19
2023-06-11T23:11:17.259Z,27.16
2023-06-11T23:13:44.570Z,27.13
2023-06-11T23:16:11.932Z,27.11
2023-06-11T23:18:39.104Z,27.08
2023-06-11T23:21:07.267Z,27.02
2023-06-11T23:23:38.870Z,27.02
2023-06-11T23:26:10.981Z,26.99
2023-06-11T23:28:38.639Z,26.97
2023-06-11T23:31:08.888Z,26.98
2023-06-11T23:33:36.797Z,26.97
2023-06-11T23:36:04.147Z,26.97
2023-06-11T23:38:31.481Z,26.97
2023-06-11T23:40:58.827Z,26.97
2023-06-11T23:43:26.019Z,26.97
2023-06-11T23:45:53.333Z,26.96
2023-06-11T23:48:20.668Z,26.96
2023-06-11T23:50:50.983Z,26.94
2023-06-11T23:53:18.288Z,26.88
2023-06-11T23:55:45.437Z,26.86
2023-06-11T23:58:20.813Z,26.84
